sensor_id;sensor_type;location;lat;lon;timestamp;P1;durP1;ratioP1;P2;durP2;ratioP2
56427;SDS011;42331;53.578;9.760;2023-11-19T00:01:25;5.43;;;3.53;;
56427;SDS011;42331;53.578;9.760;2023-11-19T00:03:56;5.30;;;3.22;;
56427;SDS011;42331;53.578;9.760;2023-11-19T00:06:27;5.00;;;3.20;;
56427;SDS011;42331;53.578;9.760;2023-11-19T00:08:58;8.30;;;3.40;;
56427;SDS011;42331;53.578;9.760;2023-11-19T00:11:30;5.63;;;3.10;;
56427;SDS011;42331;53.578;9.760;2023-11-19T00:14:01;7.83;;;3.17;;
56427;SDS011;42331;53.578;9.760;2023-11-19T00:16:32;5.03;;;2.80;;
56427;SDS011;42331;53.578;9.760;2023-11-19T00:19:03;5.77;;;2.30;;
56427;SDS011;42331;53.578;9.760;2023-11-19T00:21:34;3.87;;;2.03;;
56427;SDS011;42331;53.578;9.760;2023-11-19T00:26:38;4.25;;;2.30;;
56427;SDS011;42331;53.578;9.760;2023-11-19T00:29:10;5.10;;;2.63;;
56427;SDS011;42331;53.578;9.760;2023-11-19T00:31:41;4.87;;;2.50;;
56427;SDS011;42331;53.578;9.760;2023-11-19T00:34:12;4.25;;;2.55;;
56427;SDS011;42331;53.578;9.760;2023-11-19T00:36:43;4.57;;;2.60;;
56427;SDS011;42331;53.578;9.760;2023-11-19T00:39:15;4.20;;;2.25;;
56427;SDS011;42331;53.578;9.760;2023-11-19T00:41:46;4.10;;;2.20;;
56427;SDS011;42331;53.578;9.760;2023-11-19T00:44:17;4.87;;;2.33;;
56427;SDS011;42331;53.578;9.760;2023-11-19T00:46:49;3.70;;;2.25;;
56427;SDS011;42331;53.578;9.760;2023-11-19T00:49:20;5.00;;;2.27;;
56427;SDS011;42331;53.578;9.760;2023-11-19T00:51:52;3.67;;;1.80;;
56427;SDS011;42331;53.578;9.760;2023-11-19T00:54:23;3.78;;;1.80;;
56427;SDS011;42331;53.578;9.760;2023-11-19T00:56:55;3.83;;;2.20;;
56427;SDS011;42331;53.578;9.760;2023-11-19T00:59:26;2.70;;;1.48;;
56427;SDS011;42331;53.578;9.760;2023-11-19T01:04:36;3.78;;;1.48;;
56427;SDS011;42331;53.578;9.760;2023-11-19T01:07:08;3.30;;;1.60;;
56427;SDS011;42331;53.578;9.760;2023-11-19T01:09:42;3.30;;;1.70;;
56427;SDS011;42331;53.578;9.760;2023-11-19T01:12:13;2.40;;;1.30;;
56427;SDS011;42331;53.578;9.760;2023-11-19T01:14:44;3.07;;;1.33;;
56427;SDS011;42331;53.578;9.760;2023-11-19T01:17:15;5.05;;;1.38;;
56427;SDS011;42331;53.578;9.760;2023-11-19T01:19:47;2.90;;;1.48;;
56427;SDS011;42331;53.578;9.760;2023-11-19T01:22:18;2.33;;;1.30;;
56427;SDS011;42331;53.578;9.760;2023-11-19T01:24:49;2.33;;;0.90;;
56427;SDS011;42331;53.578;9.760;2023-11-19T01:27:22;2.88;;;1.33;;
56427;SDS011;42331;53.578;9.760;2023-11-19T01:29:53;1.63;;;0.90;;
56427;SDS011;42331;53.578;9.760;2023-11-19T01:32:24;2.33;;;1.10;;
56427;SDS011;42331;53.578;9.760;2023-11-19T01:34:56;2.92;;;1.10;;
56427;SDS011;42331;53.578;9.760;2023-11-19T01:37:27;2.00;;;1.10;;
56427;SDS011;42331;53.578;9.760;2023-11-19T01:39:58;2.50;;;1.23;;
56427;SDS011;42331;53.578;9.760;2023-11-19T01:42:29;2.40;;;1.10;;
56427;SDS011;42331;53.578;9.760;2023-11-19T01:45:00;1.67;;;1.08;;
56427;SDS011;42331;53.578;9.760;2023-11-19T01:47:32;2.00;;;1.02;;
56427;SDS011;42331;53.578;9.760;2023-11-19T01:50:03;2.72;;;1.02;;
56427;SDS011;42331;53.578;9.760;2023-11-19T01:52:37;2.47;;;0.85;;
56427;SDS011;42331;53.578;9.760;2023-11-19T01:55:08;1.63;;;0.90;;
56427;SDS011;42331;53.578;9.760;2023-11-19T01:57:40;2.10;;;0.90;;
56427;SDS011;42331;53.578;9.760;2023-11-19T02:00:11;1.33;;;0.60;;
56427;SDS011;42331;53.578;9.760;2023-11-19T02:05:14;1.55;;;0.80;;
56427;SDS011;42331;53.578;9.760;2023-11-19T02:10:17;2.05;;;0.60;;
56427;SDS011;42331;53.578;9.760;2023-11-19T02:12:49;1.13;;;0.60;;
56427;SDS011;42331;53.578;9.760;2023-11-19T02:15:21;1.35;;;0.68;;
56427;SDS011;42331;53.578;9.760;2023-11-19T02:17:54;1.05;;;0.50;;
56427;SDS011;42331;53.578;9.760;2023-11-19T02:20:25;1.83;;;0.80;;
56427;SDS011;42331;53.578;9.760;2023-11-19T02:22:56;0.57;;;0.40;;
56427;SDS011;42331;53.578;9.760;2023-11-19T02:25:29;0.60;;;0.40;;
56427;SDS011;42331;53.578;9.760;2023-11-19T02:28:02;1.02;;;0.50;;
56427;SDS011;42331;53.578;9.760;2023-11-19T02:33:05;1.85;;;0.52;;
56427;SDS011;42331;53.578;9.760;2023-11-19T02:35:36;1.57;;;0.70;;
56427;SDS011;42331;53.578;9.760;2023-11-19T02:38:07;2.80;;;0.43;;
56427;SDS011;42331;53.578;9.760;2023-11-19T02:40:39;1.20;;;0.63;;
56427;SDS011;42331;53.578;9.760;2023-11-19T02:43:10;1.65;;;1.08;;
56427;SDS011;42331;53.578;9.760;2023-11-19T02:45:41;1.53;;;1.00;;
56427;SDS011;42331;53.578;9.760;2023-11-19T02:48:15;2.05;;;1.08;;
56427;SDS011;42331;53.578;9.760;2023-11-19T02:50:46;1.53;;;1.00;;
56427;SDS011;42331;53.578;9.760;2023-11-19T02:53:18;1.88;;;1.20;;
56427;SDS011;42331;53.578;9.760;2023-11-19T02:55:52;2.00;;;1.10;;
56427;SDS011;42331;53.578;9.760;2023-11-19T02:58:23;4.18;;;1.30;;
56427;SDS011;42331;53.578;9.760;2023-11-19T03:00:55;3.45;;;1.73;;
56427;SDS011;42331;53.578;9.760;2023-11-19T03:03:30;2.45;;;1.50;;
56427;SDS011;42331;53.578;9.760;2023-11-19T03:06:08;3.15;;;2.20;;
56427;SDS011;42331;53.578;9.760;2023-11-19T03:08:40;4.63;;;1.65;;
56427;SDS011;42331;53.578;9.760;2023-11-19T03:11:11;4.60;;;2.90;;
56427;SDS011;42331;53.578;9.760;2023-11-19T03:13:42;4.07;;;2.40;;
56427;SDS011;42331;53.578;9.760;2023-11-19T03:16:13;3.58;;;2.40;;
56427;SDS011;42331;53.578;9.760;2023-11-19T03:18:44;3.17;;;2.17;;
56427;SDS011;42331;53.578;9.760;2023-11-19T03:21:15;4.83;;;3.00;;
56427;SDS011;42331;53.578;9.760;2023-11-19T03:23:46;4.18;;;3.00;;
56427;SDS011;42331;53.578;9.760;2023-11-19T03:26:17;4.33;;;2.20;;
56427;SDS011;42331;53.578;9.760;2023-11-19T03:28:48;4.25;;;3.00;;
56427;SDS011;42331;53.578;9.760;2023-11-19T03:31:19;4.05;;;2.97;;
56427;SDS011;42331;53.578;9.760;2023-11-19T03:33:51;4.73;;;3.07;;
56427;SDS011;42331;53.578;9.760;2023-11-19T03:36:22;3.83;;;2.13;;
56427;SDS011;42331;53.578;9.760;2023-11-19T03:38:53;5.23;;;3.03;;
56427;SDS011;42331;53.578;9.760;2023-11-19T03:41:24;5.28;;;3.42;;
56427;SDS011;42331;53.578;9.760;2023-11-19T03:43:55;5.53;;;3.50;;
56427;SDS011;42331;53.578;9.760;2023-11-19T03:46:26;5.97;;;3.75;;
56427;SDS011;42331;53.578;9.760;2023-11-19T03:48:58;8.95;;;4.65;;
56427;SDS011;42331;53.578;9.760;2023-11-19T03:51:29;5.87;;;3.67;;
56427;SDS011;42331;53.578;9.760;2023-11-19T03:54:00;6.85;;;4.10;;
56427;SDS011;42331;53.578;9.760;2023-11-19T03:56:31;6.53;;;3.43;;
56427;SDS011;42331;53.578;9.760;2023-11-19T03:59:02;5.77;;;3.90;;
56427;SDS011;42331;53.578;9.760;2023-11-19T04:01:34;7.20;;;4.28;;
56427;SDS011;42331;53.578;9.760;2023-11-19T04:04:05;8.20;;;4.73;;
56427;SDS011;42331;53.578;9.760;2023-11-19T04:06:36;6.72;;;4.18;;
56427;SDS011;42331;53.578;9.760;2023-11-19T04:09:07;8.07;;;4.63;;
56427;SDS011;42331;53.578;9.760;2023-11-19T04:11:38;8.35;;;5.00;;
56427;SDS011;42331;53.578;9.760;2023-11-19T04:14:10;8.13;;;4.90;;
56427;SDS011;42331;53.578;9.760;2023-11-19T04:16:41;9.73;;;5.57;;
56427;SDS011;42331;53.578;9.760;2023-11-19T04:19:12;11.00;;;6.22;;
56427;SDS011;42331;53.578;9.760;2023-11-19T04:21:43;10.40;;;6.10;;
56427;SDS011;42331;53.578;9.760;2023-11-19T04:24:14;11.97;;;7.10;;
56427;SDS011;42331;53.578;9.760;2023-11-19T04:26:45;11.87;;;6.70;;
56427;SDS011;42331;53.578;9.760;2023-11-19T04:29:16;12.60;;;6.53;;
56427;SDS011;42331;53.578;9.760;2023-11-19T04:31:47;14.07;;;8.23;;
56427;SDS011;42331;53.578;9.760;2023-11-19T04:34:18;15.27;;;8.27;;
56427;SDS011;42331;53.578;9.760;2023-11-19T04:36:50;17.48;;;8.93;;
56427;SDS011;42331;53.578;9.760;2023-11-19T04:39:21;16.63;;;8.57;;
56427;SDS011;42331;53.578;9.760;2023-11-19T04:41:52;20.80;;;9.48;;
56427;SDS011;42331;53.578;9.760;2023-11-19T04:44:23;21.02;;;10.23;;
56427;SDS011;42331;53.578;9.760;2023-11-19T04:46:54;23.13;;;10.67;;
56427;SDS011;42331;53.578;9.760;2023-11-19T04:49:25;19.30;;;10.18;;
56427;SDS011;42331;53.578;9.760;2023-11-19T04:51:57;30.95;;;11.93;;
56427;SDS011;42331;53.578;9.760;2023-11-19T04:54:28;27.90;;;11.50;;
56427;SDS011;42331;53.578;9.760;2023-11-19T04:56:59;24.80;;;12.00;;
56427;SDS011;42331;53.578;9.760;2023-11-19T04:59:30;30.10;;;11.75;;
56427;SDS011;42331;53.578;9.760;2023-11-19T05:02:01;19.97;;;10.73;;
56427;SDS011;42331;53.578;9.760;2023-11-19T05:04:32;27.63;;;13.23;;
56427;SDS011;42331;53.578;9.760;2023-11-19T05:07:03;26.00;;;12.77;;
56427;SDS011;42331;53.578;9.760;2023-11-19T05:09:34;33.40;;;14.77;;
56427;SDS011;42331;53.578;9.760;2023-11-19T05:12:05;34.30;;;14.63;;
56427;SDS011;42331;53.578;9.760;2023-11-19T05:14:40;30.38;;;12.90;;
56427;SDS011;42331;53.578;9.760;2023-11-19T05:17:11;31.03;;;14.00;;
56427;SDS011;42331;53.578;9.760;2023-11-19T05:19:42;27.27;;;14.00;;
56427;SDS011;42331;53.578;9.760;2023-11-19T05:22:13;32.23;;;14.80;;
56427;SDS011;42331;53.578;9.760;2023-11-19T05:24:44;27.55;;;14.30;;
56427;SDS011;42331;53.578;9.760;2023-11-19T05:27:15;34.10;;;14.87;;
56427;SDS011;42331;53.578;9.760;2023-11-19T05:29:46;36.00;;;14.80;;
56427;SDS011;42331;53.578;9.760;2023-11-19T05:32:17;39.03;;;14.53;;
56427;SDS011;42331;53.578;9.760;2023-11-19T05:34:48;37.75;;;13.73;;
56427;SDS011;42331;53.578;9.760;2023-11-19T05:37:19;34.13;;;15.67;;
56427;SDS011;42331;53.578;9.760;2023-11-19T05:39:50;31.10;;;14.25;;
56427;SDS011;42331;53.578;9.760;2023-11-19T05:42:22;35.50;;;13.43;;
56427;SDS011;42331;53.578;9.760;2023-11-19T05:44:54;37.08;;;14.02;;
56427;SDS011;42331;53.578;9.760;2023-11-19T05:47:25;27.63;;;13.00;;
56427;SDS011;42331;53.578;9.760;2023-11-19T05:49:56;33.90;;;13.17;;
56427;SDS011;42331;53.578;9.760;2023-11-19T05:52:27;30.83;;;12.77;;
56427;SDS011;42331;53.578;9.760;2023-11-19T05:55:03;36.13;;;13.10;;
56427;SDS011;42331;53.578;9.760;2023-11-19T05:57:36;31.85;;;13.27;;
56427;SDS011;42331;53.578;9.760;2023-11-19T06:02:40;30.75;;;12.10;;
56427;SDS011;42331;53.578;9.760;2023-11-19T06:05:11;38.90;;;13.33;;
56427;SDS011;42331;53.578;9.760;2023-11-19T06:07:42;32.40;;;12.05;;
56427;SDS011;42331;53.578;9.760;2023-11-19T06:10:13;33.83;;;11.83;;
56427;SDS011;42331;53.578;9.760;2023-11-19T06:12:46;45.75;;;12.38;;
56427;SDS011;42331;53.578;9.760;2023-11-19T06:15:17;35.30;;;12.33;;
56427;SDS011;42331;53.578;9.760;2023-11-19T06:17:48;35.78;;;11.10;;
56427;SDS011;42331;53.578;9.760;2023-11-19T06:20:20;30.77;;;10.23;;
56427;SDS011;42331;53.578;9.760;2023-11-19T06:22:51;33.13;;;11.38;;
56427;SDS011;42331;53.578;9.760;2023-11-19T06:25:22;53.70;;;11.75;;
56427;SDS011;42331;53.578;9.760;2023-11-19T06:27:56;26.58;;;8.82;;
56427;SDS011;42331;53.578;9.760;2023-11-19T06:30:27;34.07;;;8.97;;
56427;SDS011;42331;53.578;9.760;2023-11-19T06:33:00;37.85;;;8.48;;
56427;SDS011;42331;53.578;9.760;2023-11-19T06:35:31;25.88;;;7.25;;
56427;SDS011;42331;53.578;9.760;2023-11-19T06:38:06;31.70;;;8.35;;
56427;SDS011;42331;53.578;9.760;2023-11-19T06:40:37;33.40;;;7.73;;
56427;SDS011;42331;53.578;9.760;2023-11-19T06:43:08;27.02;;;7.03;;
56427;SDS011;42331;53.578;9.760;2023-11-19T06:45:39;18.73;;;5.33;;
56427;SDS011;42331;53.578;9.760;2023-11-19T06:48:10;39.17;;;9.23;;
56427;SDS011;42331;53.578;9.760;2023-11-19T06:50:41;36.65;;;7.57;;
56427;SDS011;42331;53.578;9.760;2023-11-19T06:53:12;31.60;;;7.50;;
56427;SDS011;42331;53.578;9.760;2023-11-19T06:55:43;30.27;;;6.97;;
56427;SDS011;42331;53.578;9.760;2023-11-19T06:58:14;35.63;;;6.65;;
56427;SDS011;42331;53.578;9.760;2023-11-19T07:00:45;27.27;;;6.90;;
56427;SDS011;42331;53.578;9.760;2023-11-19T07:03:17;34.72;;;6.43;;
56427;SDS011;42331;53.578;9.760;2023-11-19T07:05:48;35.10;;;6.05;;
56427;SDS011;42331;53.578;9.760;2023-11-19T07:08:19;35.93;;;5.93;;
56427;SDS011;42331;53.578;9.760;2023-11-19T07:10:50;23.17;;;5.53;;
56427;SDS011;42331;53.578;9.760;2023-11-19T07:13:21;23.10;;;4.55;;
56427;SDS011;42331;53.578;9.760;2023-11-19T07:15:52;36.37;;;4.87;;
56427;SDS011;42331;53.578;9.760;2023-11-19T07:18:23;32.67;;;4.60;;
56427;SDS011;42331;53.578;9.760;2023-11-19T07:20:54;38.93;;;4.37;;
56427;SDS011;42331;53.578;9.760;2023-11-19T07:23:25;30.73;;;3.93;;
56427;SDS011;42331;53.578;9.760;2023-11-19T07:25:56;41.55;;;5.20;;
56427;SDS011;42331;53.578;9.760;2023-11-19T07:28:27;27.80;;;3.85;;
56427;SDS011;42331;53.578;9.760;2023-11-19T07:30:58;32.47;;;4.43;;
56427;SDS011;42331;53.578;9.760;2023-11-19T07:33:30;29.55;;;4.53;;
56427;SDS011;42331;53.578;9.760;2023-11-19T07:36:01;30.65;;;3.95;;
56427;SDS011;42331;53.578;9.760;2023-11-19T07:38:32;30.93;;;4.17;;
56427;SDS011;42331;53.578;9.760;2023-11-19T07:41:03;27.17;;;3.92;;
56427;SDS011;42331;53.578;9.760;2023-11-19T07:46:10;32.90;;;3.45;;
56427;SDS011;42331;53.578;9.760;2023-11-19T07:48:41;26.60;;;3.58;;
56427;SDS011;42331;53.578;9.760;2023-11-19T07:51:13;23.90;;;3.70;;
56427;SDS011;42331;53.578;9.760;2023-11-19T07:56:15;41.63;;;5.00;;
56427;SDS011;42331;53.578;9.760;2023-11-19T07:58:47;35.90;;;4.03;;
56427;SDS011;42331;53.578;9.760;2023-11-19T08:01:18;15.30;;;2.83;;
56427;SDS011;42331;53.578;9.760;2023-11-19T08:03:49;36.27;;;4.23;;
56427;SDS011;42331;53.578;9.760;2023-11-19T08:06:20;29.88;;;3.97;;
56427;SDS011;42331;53.578;9.760;2023-11-19T08:08:51;35.23;;;4.70;;
56427;SDS011;42331;53.578;9.760;2023-11-19T08:11:22;36.67;;;3.63;;
56427;SDS011;42331;53.578;9.760;2023-11-19T08:13:54;29.00;;;4.28;;
56427;SDS011;42331;53.578;9.760;2023-11-19T08:16:25;34.25;;;4.30;;
56427;SDS011;42331;53.578;9.760;2023-11-19T08:18:56;24.20;;;3.90;;
56427;SDS011;42331;53.578;9.760;2023-11-19T08:21:31;26.15;;;3.53;;
56427;SDS011;42331;53.578;9.760;2023-11-19T08:24:02;24.42;;;3.20;;
56427;SDS011;42331;53.578;9.760;2023-11-19T08:26:33;29.50;;;3.30;;
56427;SDS011;42331;53.578;9.760;2023-11-19T08:29:05;25.33;;;3.03;;
56427;SDS011;42331;53.578;9.760;2023-11-19T08:31:36;28.40;;;3.58;;
56427;SDS011;42331;53.578;9.760;2023-11-19T08:34:07;26.60;;;3.07;;
56427;SDS011;42331;53.578;9.760;2023-11-19T08:36:39;30.98;;;4.00;;
56427;SDS011;42331;53.578;9.760;2023-11-19T08:39:10;15.57;;;2.08;;
56427;SDS011;42331;53.578;9.760;2023-11-19T08:41:41;26.88;;;3.83;;
56427;SDS011;42331;53.578;9.760;2023-11-19T08:44:12;25.05;;;3.67;;
56427;SDS011;42331;53.578;9.760;2023-11-19T08:46:47;28.33;;;3.85;;
56427;SDS011;42331;53.578;9.760;2023-11-19T08:49:18;21.67;;;3.83;;
56427;SDS011;42331;53.578;9.760;2023-11-19T08:51:50;26.05;;;3.67;;
56427;SDS011;42331;53.578;9.760;2023-11-19T08:54:21;27.48;;;3.92;;
56427;SDS011;42331;53.578;9.760;2023-11-19T08:59:23;31.13;;;4.60;;
56427;SDS011;42331;53.578;9.760;2023-11-19T09:01:55;27.50;;;4.88;;
56427;SDS011;42331;53.578;9.760;2023-11-19T09:04:26;28.93;;;3.57;;
56427;SDS011;42331;53.578;9.760;2023-11-19T09:06:57;24.37;;;3.07;;
56427;SDS011;42331;53.578;9.760;2023-11-19T09:09:28;31.35;;;4.20;;
56427;SDS011;42331;53.578;9.760;2023-11-19T09:12:00;29.25;;;3.50;;
56427;SDS011;42331;53.578;9.760;2023-11-19T09:14:31;35.90;;;3.38;;
56427;SDS011;42331;53.578;9.760;2023-11-19T09:17:02;26.73;;;3.30;;
56427;SDS011;42331;53.578;9.760;2023-11-19T09:19:34;21.75;;;3.58;;
56427;SDS011;42331;53.578;9.760;2023-11-19T09:22:06;23.23;;;3.20;;
56427;SDS011;42331;53.578;9.760;2023-11-19T09:24:37;32.22;;;3.97;;
56427;SDS011;42331;53.578;9.760;2023-11-19T09:27:08;31.23;;;3.43;;
56427;SDS011;42331;53.578;9.760;2023-11-19T09:29:39;31.17;;;3.63;;
56427;SDS011;42331;53.578;9.760;2023-11-19T09:32:10;29.45;;;3.80;;
56427;SDS011;42331;53.578;9.760;2023-11-19T09:34:41;22.33;;;2.90;;
56427;SDS011;42331;53.578;9.760;2023-11-19T09:37:12;29.60;;;4.20;;
56427;SDS011;42331;53.578;9.760;2023-11-19T09:39:43;32.33;;;4.05;;
56427;SDS011;42331;53.578;9.760;2023-11-19T09:42:14;28.13;;;4.18;;
56427;SDS011;42331;53.578;9.760;2023-11-19T09:44:46;30.92;;;3.65;;
56427;SDS011;42331;53.578;9.760;2023-11-19T09:47:18;29.35;;;3.95;;
56427;SDS011;42331;53.578;9.760;2023-11-19T09:49:52;29.48;;;4.03;;
56427;SDS011;42331;53.578;9.760;2023-11-19T09:54:55;33.47;;;4.03;;
56427;SDS011;42331;53.578;9.760;2023-11-19T09:57:26;28.10;;;3.40;;
56427;SDS011;42331;53.578;9.760;2023-11-19T09:59:57;26.70;;;3.78;;
56427;SDS011;42331;53.578;9.760;2023-11-19T10:02:29;24.30;;;2.97;;
56427;SDS011;42331;53.578;9.760;2023-11-19T10:05:04;25.08;;;3.20;;
56427;SDS011;42331;53.578;9.760;2023-11-19T10:07:35;35.30;;;3.92;;
56427;SDS011;42331;53.578;9.760;2023-11-19T10:10:06;27.97;;;3.40;;
56427;SDS011;42331;53.578;9.760;2023-11-19T10:15:11;26.25;;;3.30;;
56427;SDS011;42331;53.578;9.760;2023-11-19T10:17:46;33.00;;;3.72;;
56427;SDS011;42331;53.578;9.760;2023-11-19T10:20:18;27.77;;;3.50;;
56427;SDS011;42331;53.578;9.760;2023-11-19T10:22:52;29.92;;;4.15;;
56427;SDS011;42331;53.578;9.760;2023-11-19T10:25:24;26.65;;;3.90;;
56427;SDS011;42331;53.578;9.760;2023-11-19T10:30:28;28.38;;;4.10;;
56427;SDS011;42331;53.578;9.760;2023-11-19T10:35:31;37.83;;;3.83;;
56427;SDS011;42331;53.578;9.760;2023-11-19T10:38:14;32.45;;;4.35;;
56427;SDS011;42331;53.578;9.760;2023-11-19T10:40:46;38.22;;;4.72;;
56427;SDS011;42331;53.578;9.760;2023-11-19T10:43:17;35.78;;;4.30;;
56427;SDS011;42331;53.578;9.760;2023-11-19T10:45:49;32.85;;;3.30;;
56427;SDS011;42331;53.578;9.760;2023-11-19T10:48:20;29.35;;;3.70;;
56427;SDS011;42331;53.578;9.760;2023-11-19T10:50:53;31.33;;;4.15;;
56427;SDS011;42331;53.578;9.760;2023-11-19T10:53:25;32.08;;;3.83;;
56427;SDS011;42331;53.578;9.760;2023-11-19T10:55:57;32.65;;;3.38;;
56427;SDS011;42331;53.578;9.760;2023-11-19T10:58:28;31.17;;;4.32;;
56427;SDS011;42331;53.578;9.760;2023-11-19T11:01:01;32.42;;;3.90;;
56427;SDS011;42331;53.578;9.760;2023-11-19T11:03:36;33.97;;;3.90;;
56427;SDS011;42331;53.578;9.760;2023-11-19T11:06:09;25.92;;;3.53;;
56427;SDS011;42331;53.578;9.760;2023-11-19T11:08:41;30.25;;;3.67;;
56427;SDS011;42331;53.578;9.760;2023-11-19T11:11:13;21.67;;;3.60;;
56427;SDS011;42331;53.578;9.760;2023-11-19T11:13:51;40.05;;;3.80;;
56427;SDS011;42331;53.578;9.760;2023-11-19T11:18:54;33.20;;;3.70;;
56427;SDS011;42331;53.578;9.760;2023-11-19T11:21:25;27.58;;;3.80;;
56427;SDS011;42331;53.578;9.760;2023-11-19T11:24:09;32.80;;;3.40;;
56427;SDS011;42331;53.578;9.760;2023-11-19T11:29:55;32.17;;;3.08;;
56427;SDS011;42331;53.578;9.760;2023-11-19T11:35:12;28.50;;;3.00;;
56427;SDS011;42331;53.578;9.760;2023-11-19T11:37:49;27.30;;;2.83;;
56427;SDS011;42331;53.578;9.760;2023-11-19T11:40:22;31.05;;;3.60;;
56427;SDS011;42331;53.578;9.760;2023-11-19T11:42:53;27.73;;;3.30;;
56427;SDS011;42331;53.578;9.760;2023-11-19T11:45:38;27.47;;;3.57;;
56427;SDS011;42331;53.578;9.760;2023-11-19T11:48:10;27.38;;;3.63;;
56427;SDS011;42331;53.578;9.760;2023-11-19T11:53:16;28.08;;;2.78;;
56427;SDS011;42331;53.578;9.760;2023-11-19T11:58:26;28.00;;;3.47;;
56427;SDS011;42331;53.578;9.760;2023-11-19T12:00:57;27.25;;;3.08;;
56427;SDS011;42331;53.578;9.760;2023-11-19T12:03:30;25.50;;;3.75;;
56427;SDS011;42331;53.578;9.760;2023-11-19T12:06:02;28.52;;;3.33;;
56427;SDS011;42331;53.578;9.760;2023-11-19T12:08:33;26.60;;;3.40;;
56427;SDS011;42331;53.578;9.760;2023-11-19T12:11:05;25.60;;;3.30;;
56427;SDS011;42331;53.578;9.760;2023-11-19T12:13:52;17.75;;;2.83;;
56427;SDS011;42331;53.578;9.760;2023-11-19T12:16:25;17.85;;;2.97;;
56427;SDS011;42331;53.578;9.760;2023-11-19T12:19:02;22.73;;;3.00;;
56427;SDS011;42331;53.578;9.760;2023-11-19T12:21:34;24.30;;;3.55;;
56427;SDS011;42331;53.578;9.760;2023-11-19T12:24:07;29.10;;;4.05;;
56427;SDS011;42331;53.578;9.760;2023-11-19T12:26:39;20.13;;;3.28;;
56427;SDS011;42331;53.578;9.760;2023-11-19T12:29:11;18.52;;;2.80;;
56427;SDS011;42331;53.578;9.760;2023-11-19T12:31:44;23.40;;;2.50;;
56427;SDS011;42331;53.578;9.760;2023-11-19T12:34:15;30.30;;;3.60;;
56427;SDS011;42331;53.578;9.760;2023-11-19T12:36:46;22.50;;;2.30;;
56427;SDS011;42331;53.578;9.760;2023-11-19T12:39:17;27.60;;;4.55;;
56427;SDS011;42331;53.578;9.760;2023-11-19T12:41:50;19.70;;;3.92;;
56427;SDS011;42331;53.578;9.760;2023-11-19T12:44:21;25.60;;;3.33;;
56427;SDS011;42331;53.578;9.760;2023-11-19T12:49:56;25.73;;;3.03;;
56427;SDS011;42331;53.578;9.760;2023-11-19T12:52:27;19.58;;;3.17;;
56427;SDS011;42331;53.578;9.760;2023-11-19T12:54:58;29.70;;;4.07;;
56427;SDS011;42331;53.578;9.760;2023-11-19T12:57:39;28.42;;;3.58;;
56427;SDS011;42331;53.578;9.760;2023-11-19T13:00:21;20.50;;;2.83;;
56427;SDS011;42331;53.578;9.760;2023-11-19T13:02:55;21.70;;;2.70;;
56427;SDS011;42331;53.578;9.760;2023-11-19T13:05:31;17.98;;;2.97;;
56427;SDS011;42331;53.578;9.760;2023-11-19T13:08:07;19.00;;;2.92;;
56427;SDS011;42331;53.578;9.760;2023-11-19T13:10:51;22.60;;;3.45;;
56427;SDS011;42331;53.578;9.760;2023-11-19T13:13:25;19.08;;;2.70;;
56427;SDS011;42331;53.578;9.760;2023-11-19T13:16:03;21.02;;;3.05;;
56427;SDS011;42331;53.578;9.760;2023-11-19T13:18:39;26.42;;;3.40;;
56427;SDS011;42331;53.578;9.760;2023-11-19T13:21:10;31.05;;;3.08;;
56427;SDS011;42331;53.578;9.760;2023-11-19T13:23:41;23.63;;;3.07;;
56427;SDS011;42331;53.578;9.760;2023-11-19T13:26:14;24.23;;;2.92;;
56427;SDS011;42331;53.578;9.760;2023-11-19T13:28:45;25.87;;;3.17;;
56427;SDS011;42331;53.578;9.760;2023-11-19T13:31:16;26.57;;;3.87;;
56427;SDS011;42331;53.578;9.760;2023-11-19T13:33:47;26.87;;;3.30;;
56427;SDS011;42331;53.578;9.760;2023-11-19T13:36:18;23.80;;;2.60;;
56427;SDS011;42331;53.578;9.760;2023-11-19T13:38:49;21.97;;;2.87;;
56427;SDS011;42331;53.578;9.760;2023-11-19T13:41:20;21.92;;;2.92;;
56427;SDS011;42331;53.578;9.760;2023-11-19T13:43:52;31.57;;;4.23;;
56427;SDS011;42331;53.578;9.760;2023-11-19T13:46:23;26.10;;;3.15;;
56427;SDS011;42331;53.578;9.760;2023-11-19T13:48:54;19.37;;;2.77;;
56427;SDS011;42331;53.578;9.760;2023-11-19T13:51:26;27.33;;;3.45;;
56427;SDS011;42331;53.578;9.760;2023-11-19T13:53:57;24.33;;;3.20;;
56427;SDS011;42331;53.578;9.760;2023-11-19T13:56:28;23.30;;;3.63;;
56427;SDS011;42331;53.578;9.760;2023-11-19T13:58:59;25.52;;;3.08;;
56427;SDS011;42331;53.578;9.760;2023-11-19T14:01:30;20.20;;;3.70;;
56427;SDS011;42331;53.578;9.760;2023-11-19T14:04:01;20.03;;;3.00;;
56427;SDS011;42331;53.578;9.760;2023-11-19T14:06:32;22.67;;;3.00;;
56427;SDS011;42331;53.578;9.760;2023-11-19T14:09:06;24.50;;;4.70;;
56427;SDS011;42331;53.578;9.760;2023-11-19T14:11:37;29.20;;;4.68;;
56427;SDS011;42331;53.578;9.760;2023-11-19T14:14:08;23.08;;;2.70;;
56427;SDS011;42331;53.578;9.760;2023-11-19T14:16:39;18.58;;;2.65;;
56427;SDS011;42331;53.578;9.760;2023-11-19T14:19:10;24.17;;;3.17;;
56427;SDS011;42331;53.578;9.760;2023-11-19T14:21:41;18.90;;;2.72;;
56427;SDS011;42331;53.578;9.760;2023-11-19T14:24:12;22.73;;;3.10;;
56427;SDS011;42331;53.578;9.760;2023-11-19T14:26:45;27.13;;;3.10;;
56427;SDS011;42331;53.578;9.760;2023-11-19T14:29:17;20.58;;;2.78;;
56427;SDS011;42331;53.578;9.760;2023-11-19T14:31:48;18.52;;;2.30;;
56427;SDS011;42331;53.578;9.760;2023-11-19T14:34:19;15.85;;;4.13;;
56427;SDS011;42331;53.578;9.760;2023-11-19T14:36:50;25.33;;;2.70;;
56427;SDS011;42331;53.578;9.760;2023-11-19T14:39:21;24.27;;;2.97;;
56427;SDS011;42331;53.578;9.760;2023-11-19T14:41:53;18.60;;;2.55;;
56427;SDS011;42331;53.578;9.760;2023-11-19T14:44:27;19.80;;;2.65;;
56427;SDS011;42331;53.578;9.760;2023-11-19T14:46:59;22.73;;;2.83;;
56427;SDS011;42331;53.578;9.760;2023-11-19T14:49:34;23.35;;;2.42;;
56427;SDS011;42331;53.578;9.760;2023-11-19T14:52:05;24.17;;;3.03;;
56427;SDS011;42331;53.578;9.760;2023-11-19T14:54:36;10.80;;;1.50;;
56427;SDS011;42331;53.578;9.760;2023-11-19T14:57:08;6.95;;;1.08;;
56427;SDS011;42331;53.578;9.760;2023-11-19T14:59:39;8.10;;;1.30;;
56427;SDS011;42331;53.578;9.760;2023-11-19T15:02:10;7.03;;;1.10;;
56427;SDS011;42331;53.578;9.760;2023-11-19T15:04:41;9.38;;;1.30;;
56427;SDS011;42331;53.578;9.760;2023-11-19T15:07:14;7.95;;;1.02;;
56427;SDS011;42331;53.578;9.760;2023-11-19T15:09:45;8.13;;;1.38;;
56427;SDS011;42331;53.578;9.760;2023-11-19T15:12:16;10.70;;;1.55;;
56427;SDS011;42331;53.578;9.760;2023-11-19T15:14:47;11.37;;;2.17;;
56427;SDS011;42331;53.578;9.760;2023-11-19T15:17:18;11.65;;;2.00;;
56427;SDS011;42331;53.578;9.760;2023-11-19T15:19:49;23.58;;;2.83;;
56427;SDS011;42331;53.578;9.760;2023-11-19T15:22:20;22.23;;;2.70;;
56427;SDS011;42331;53.578;9.760;2023-11-19T15:24:51;21.08;;;3.40;;
56427;SDS011;42331;53.578;9.760;2023-11-19T15:27:23;29.95;;;3.28;;
56427;SDS011;42331;53.578;9.760;2023-11-19T15:29:54;15.97;;;2.30;;
56427;SDS011;42331;53.578;9.760;2023-11-19T15:32:25;20.77;;;2.35;;
56427;SDS011;42331;53.578;9.760;2023-11-19T15:34:56;21.98;;;2.72;;
56427;SDS011;42331;53.578;9.760;2023-11-19T15:37:27;26.92;;;2.83;;
56427;SDS011;42331;53.578;9.760;2023-11-19T15:39:59;21.83;;;3.22;;
56427;SDS011;42331;53.578;9.760;2023-11-19T15:42:30;24.67;;;3.13;;
56427;SDS011;42331;53.578;9.760;2023-11-19T15:45:01;13.52;;;1.90;;
56427;SDS011;42331;53.578;9.760;2023-11-19T15:47:36;28.30;;;2.47;;
56427;SDS011;42331;53.578;9.760;2023-11-19T15:50:07;23.27;;;2.80;;
56427;SDS011;42331;53.578;9.760;2023-11-19T15:52:40;27.23;;;2.83;;